createdAt,value
2022-08-18T00:02:22.913Z,2.80
2022-08-18T00:04:57.121Z,1.95
2022-08-18T00:07:31.064Z,2.17
2022-08-18T00:10:01.205Z,2.63
2022-08-18T00:12:37.219Z,2.53
2022-08-18T00:17:33.944Z,2.13
2022-08-18T00:20:01.250Z,3.53
2022-08-18T00:22:28.280Z,4.53
2022-08-18T00:24:56.725Z,4.60
2022-08-18T00:27:28.687Z,3.42
2022-08-18T00:29:58.503Z,2.45
2022-08-18T00:32:33.811Z,3.17
2022-08-18T00:35:21.035Z,2.53
2022-08-18T00:37:49.321Z,2.10
2022-08-18T00:40:24.460Z,3.85
2022-08-18T00:42:55.013Z,3.67
2022-08-18T00:45:36.640Z,6.88
2022-08-18T00:48:06.069Z,1.63
2022-08-18T00:50:40.193Z,3.33
2022-08-18T00:53:19.881Z,1.83
2022-08-18T00:55:53.650Z,2.13
2022-08-18T00:58:28.243Z,2.13
2022-08-18T01:00:55.698Z,2.83
2022-08-18T01:03:25.416Z,4.03
2022-08-18T01:06:27.097Z,3.75
2022-08-18T01:08:55.994Z,2.63
2022-08-18T01:11:23.127Z,2.80
2022-08-18T01:13:50.798Z,4.03
2022-08-18T01:16:37.385Z,5.03
2022-08-18T01:21:57.520Z,3.42
2022-08-18T01:24:48.113Z,5.20
2022-08-18T01:27:18.366Z,6.40
2022-08-18T01:29:47.307Z,3.13
2022-08-18T01:32:22.979Z,3.53
2022-08-18T01:34:52.065Z,3.42
2022-08-18T01:37:22.466Z,3.67
2022-08-18T01:41:22.761Z,6.80
2022-08-18T01:42:38.629Z,3.08
2022-08-18T01:45:08.083Z,5.05
2022-08-18T01:47:47.496Z,4.85
2022-08-18T01:50:15.244Z,7.15
2022-08-18T01:52:42.323Z,4.97
2022-08-18T01:55:09.721Z,6.80
2022-08-18T01:57:43.112Z,6.88
2022-08-18T02:00:12.597Z,0.93
2022-08-18T02:02:40.463Z,3.58
2022-08-18T02:05:13.528Z,5.93
2022-08-18T02:07:40.519Z,3.30
2022-08-18T02:10:16.349Z,2.60
2022-08-18T02:12:44.002Z,3.55
2022-08-18T02:15:11.935Z,2.55
2022-08-18T02:17:40.446Z,2.13
2022-08-18T02:20:09.490Z,2.97
2022-08-18T02:22:37.886Z,3.22
2022-08-18T02:25:06.799Z,3.72
2022-08-18T02:27:34.166Z,4.57
2022-08-18T02:30:03.250Z,2.03
2022-08-18T02:32:31.746Z,3.35
2022-08-18T02:34:58.844Z,3.10
2022-08-18T02:37:25.830Z,7.75
2022-08-18T02:39:52.812Z,4.22
2022-08-18T02:42:19.684Z,1.25
2022-08-18T02:44:46.591Z,2.22
2022-08-18T02:47:13.489Z,4.03
2022-08-18T02:49:40.464Z,2.60
2022-08-18T02:52:07.438Z,4.47
2022-08-18T02:54:35.270Z,4.05
2022-08-18T02:57:08.229Z,2.78
2022-08-18T02:59:35.231Z,4.72
2022-08-18T03:02:02.147Z,4.13
2022-08-18T03:04:30.787Z,2.38
2022-08-18T03:07:03.260Z,5.53
2022-08-18T03:09:31.659Z,5.25
2022-08-18T03:11:58.896Z,4.00
2022-08-18T03:14:26.169Z,3.85
2022-08-18T03:16:54.690Z,7.18
2022-08-18T03:19:24.011Z,3.90
2022-08-18T03:21:51.218Z,5.57
2022-08-18T03:24:22.792Z,4.95
2022-08-18T03:26:51.737Z,2.47
2022-08-18T03:29:18.900Z,2.35
2022-08-18T03:31:48.794Z,4.13
2022-08-18T03:34:19.850Z,7.10
2022-08-18T03:36:48.069Z,3.53
2022-08-18T03:39:15.053Z,3.53
2022-08-18T03:41:58.616Z,3.17
2022-08-18T03:44:33.190Z,10.48
2022-08-18T03:47:03.190Z,7.13
2022-08-18T03:49:31.183Z,3.78
2022-08-18T03:52:00.860Z,3.40
2022-08-18T03:54:29.449Z,4.97
2022-08-18T03:56:56.462Z,2.97
2022-08-18T03:59:25.534Z,4.57
2022-08-18T04:01:54.232Z,2.53
2022-08-18T04:04:23.933Z,2.58
2022-08-18T04:07:05.022Z,3.92
2022-08-18T04:09:33.541Z,5.80
2022-08-18T04:12:13.415Z,10.70
2022-08-18T04:14:46.657Z,8.10
2022-08-18T04:17:13.908Z,9.27
2022-08-18T04:19:40.951Z,13.65
2022-08-18T04:22:07.840Z,4.95
2022-08-18T04:24:34.907Z,5.25
2022-08-18T04:27:05.031Z,7.63
2022-08-18T04:29:32.630Z,9.05
2022-08-18T04:32:04.779Z,7.45
2022-08-18T04:34:33.399Z,5.50
2022-08-18T04:37:00.470Z,6.60
2022-08-18T04:39:27.433Z,6.45
2022-08-18T04:41:54.921Z,12.75
2022-08-18T04:44:22.243Z,4.13
2022-08-18T04:46:52.283Z,7.93
2022-08-18T04:49:21.501Z,10.18
2022-08-18T04:52:26.584Z,8.52
2022-08-18T04:54:56.478Z,7.25
2022-08-18T04:57:24.146Z,7.70
2022-08-18T04:59:52.461Z,8.60
2022-08-18T05:02:20.916Z,7.72
2022-08-18T05:04:48.405Z,6.38
2022-08-18T05:07:18.832Z,6.13
2022-08-18T05:09:46.317Z,7.47
2022-08-18T05:12:15.647Z,5.25
2022-08-18T05:14:44.762Z,13.73
2022-08-18T05:17:12.593Z,8.50
2022-08-18T05:19:42.125Z,12.75
2022-08-18T05:22:11.489Z,6.72
2022-08-18T05:24:41.212Z,9.70
2022-08-18T05:27:08.246Z,9.65
2022-08-18T05:29:41.354Z,13.23
2022-08-18T05:32:09.465Z,11.70
2022-08-18T05:34:36.546Z,9.77
2022-08-18T05:37:03.463Z,14.80
2022-08-18T05:40:04.321Z,16.15
2022-08-18T05:42:37.957Z,9.27
2022-08-18T05:45:11.119Z,8.38
2022-08-18T05:47:38.023Z,11.45
2022-08-18T05:50:19.162Z,14.38
2022-08-18T05:52:58.147Z,8.90
2022-08-18T05:55:53.977Z,7.63
2022-08-18T05:58:43.193Z,7.45
2022-08-18T06:01:20.471Z,7.80
2022-08-18T06:03:54.080Z,9.20
2022-08-18T06:06:26.374Z,7.57
2022-08-18T06:09:28.704Z,12.80
2022-08-18T06:12:08.981Z,9.80
2022-08-18T06:14:38.228Z,13.38
2022-08-18T06:17:18.911Z,7.65
2022-08-18T06:20:06.072Z,11.38
2022-08-18T06:22:56.548Z,9.23
2022-08-18T06:25:27.604Z,15.45
2022-08-18T06:28:13.535Z,12.55
2022-08-18T06:30:40.420Z,18.77
2022-08-18T06:33:25.981Z,12.90
2022-08-18T06:36:02.780Z,8.68
2022-08-18T06:38:46.185Z,8.35
2022-08-18T06:41:43.325Z,11.27
2022-08-18T06:44:10.550Z,11.38
2022-08-18T06:46:56.256Z,8.27
2022-08-18T06:49:42.450Z,13.27
2022-08-18T06:52:33.685Z,13.63
2022-08-18T06:55:15.999Z,10.10
2022-08-18T06:58:01.337Z,9.57
2022-08-18T07:00:32.537Z,12.68
2022-08-18T07:03:06.883Z,6.50
2022-08-18T07:05:36.508Z,16.58
2022-08-18T07:08:35.422Z,15.88
2022-08-18T07:11:20.382Z,8.13
2022-08-18T07:14:09.428Z,7.53
2022-08-18T07:16:57.850Z,8.35
2022-08-18T07:19:29.747Z,11.80
2022-08-18T07:22:17.067Z,8.48
2022-08-18T07:24:52.961Z,11.93
2022-08-18T07:27:41.913Z,9.65
2022-08-18T07:30:25.011Z,17.17
2022-08-18T07:33:07.518Z,11.85
2022-08-18T07:35:39.491Z,16.55
2022-08-18T07:38:40.850Z,5.90
2022-08-18T07:41:26.209Z,5.38
2022-08-18T07:44:23.876Z,9.73
2022-08-18T07:47:04.777Z,9.88
2022-08-18T07:49:36.746Z,13.50
2022-08-18T07:52:43.791Z,14.65
2022-08-18T07:55:10.358Z,10.48
2022-08-18T07:58:06.096Z,9.90
2022-08-18T08:00:57.999Z,7.60
2022-08-18T08:03:50.399Z,11.85
2022-08-18T08:06:20.698Z,9.45
2022-08-18T08:08:59.164Z,10.57
2022-08-18T08:11:52.393Z,9.60
2022-08-18T08:14:31.454Z,11.77
2022-08-18T08:17:23.642Z,10.50
2022-08-18T08:20:24.055Z,13.13
2022-08-18T08:23:05.252Z,13.65
2022-08-18T08:25:49.137Z,15.93
2022-08-18T08:28:24.976Z,18.02
2022-08-18T08:31:49.908Z,11.95
2022-08-18T08:34:40.070Z,14.57
2022-08-18T08:37:14.942Z,11.02
2022-08-18T08:39:50.695Z,11.95
2022-08-18T08:42:30.535Z,10.73
2022-08-18T08:45:05.729Z,10.93
2022-08-18T08:47:58.497Z,13.30
2022-08-18T08:50:36.793Z,15.90
2022-08-18T08:53:14.725Z,12.20
2022-08-18T08:55:49.574Z,18.05
2022-08-18T08:58:31.415Z,8.13
2022-08-18T09:00:59.150Z,12.88
2022-08-18T09:03:41.571Z,9.35
2022-08-18T09:06:30.329Z,8.63
2022-08-18T09:09:11.326Z,7.55
2022-08-18T09:12:18.774Z,8.18
2022-08-18T09:18:01.825Z,10.80
2022-08-18T09:20:43.525Z,12.23
2022-08-18T09:23:21.877Z,13.45
2022-08-18T09:25:54.601Z,7.93
2022-08-18T09:28:30.842Z,16.95
2022-08-18T09:31:08.619Z,9.88
2022-08-18T09:33:45.385Z,10.27
2022-08-18T09:36:36.893Z,15.18
2022-08-18T09:39:25.233Z,8.82
2022-08-18T09:41:58.625Z,12.13
2022-08-18T09:44:47.747Z,8.77
2022-08-18T09:47:22.043Z,8.15
2022-08-18T09:49:51.059Z,9.43
2022-08-18T09:52:24.321Z,14.27
2022-08-18T09:54:59.836Z,12.30
2022-08-18T09:57:36.855Z,12.88
2022-08-18T10:00:12.565Z,12.35
2022-08-18T10:02:40.424Z,14.20
2022-08-18T10:05:17.107Z,16.05
2022-08-18T10:07:48.857Z,8.65
2022-08-18T10:10:58.959Z,9.93
2022-08-18T10:13:45.141Z,11.82
2022-08-18T10:16:28.196Z,4.35
2022-08-18T10:19:18.570Z,10.63
2022-08-18T10:21:58.573Z,8.90
2022-08-18T10:25:22.878Z,6.15
2022-08-18T10:27:54.713Z,7.60
2022-08-18T10:30:34.547Z,10.43
2022-08-18T10:33:17.581Z,6.53
2022-08-18T10:36:03.084Z,6.00
2022-08-18T10:38:46.095Z,6.63
2022-08-18T10:41:33.454Z,3.33
2022-08-18T10:44:20.949Z,4.78
2022-08-18T10:46:51.611Z,3.70
2022-08-18T10:49:26.128Z,2.85
2022-08-18T10:52:16.400Z,4.00
2022-08-18T10:55:06.332Z,5.15
2022-08-18T10:58:15.574Z,12.60
2022-08-18T11:01:00.957Z,4.43
2022-08-18T11:03:51.005Z,5.90
2022-08-18T11:06:24.920Z,5.43
2022-08-18T11:08:57.478Z,6.32
2022-08-18T11:14:35.804Z,9.82
2022-08-18T11:17:15.960Z,6.00
2022-08-18T11:19:46.215Z,6.18
2022-08-18T11:22:31.614Z,4.63
2022-08-18T11:25:01.112Z,6.45
2022-08-18T11:27:35.775Z,7.43
2022-08-18T11:30:06.090Z,4.10
2022-08-18T11:32:36.692Z,4.45
2022-08-18T11:35:12.950Z,6.47
2022-08-18T11:37:48.806Z,9.30
2022-08-18T11:40:51.656Z,6.95
2022-08-18T11:43:09.174Z,7.18
2022-08-18T11:45:54.260Z,6.63
2022-08-18T11:51:29.415Z,7.25
2022-08-18T11:54:01.162Z,12.77
2022-08-18T11:56:32.379Z,11.45
2022-08-18T11:59:53.117Z,6.32
2022-08-18T12:02:21.515Z,7.43
2022-08-18T12:04:57.856Z,5.68
2022-08-18T12:07:57.315Z,6.93
2022-08-18T12:10:29.050Z,4.75
2022-08-18T12:15:47.684Z,10.40
2022-08-18T12:18:25.893Z,11.00
2022-08-18T12:20:55.383Z,9.43
2022-08-18T12:23:22.290Z,8.52
2022-08-18T12:25:51.774Z,10.85
2022-08-18T12:28:22.760Z,7.72
2022-08-18T12:30:57.156Z,9.95
2022-08-18T12:33:25.616Z,17.08
2022-08-18T12:36:04.167Z,18.02
2022-08-18T12:38:32.882Z,14.43
2022-08-18T12:41:05.100Z,18.10
2022-08-18T12:43:32.616Z,13.70
2022-08-18T12:46:01.249Z,13.45
2022-08-18T12:48:30.119Z,13.75
2022-08-18T12:50:59.665Z,10.38
2022-08-18T12:56:30.300Z,14.68
2022-08-18T12:59:04.007Z,16.92
2022-08-18T13:01:32.540Z,18.92
2022-08-18T13:07:00.443Z,12.82
2022-08-18T13:09:35.345Z,16.83
2022-08-18T13:12:20.239Z,16.73
2022-08-18T13:14:48.127Z,22.20
2022-08-18T13:17:30.239Z,17.08
2022-08-18T13:20:14.288Z,16.02
2022-08-18T13:22:42.047Z,9.20
2022-08-18T13:25:12.294Z,15.73
2022-08-18T13:27:44.983Z,9.63
2022-08-18T13:30:30.131Z,15.52
2022-08-18T13:33:02.338Z,13.15
2022-08-18T13:35:37.851Z,17.60
2022-08-18T13:38:21.750Z,9.68
2022-08-18T13:40:54.769Z,14.85
2022-08-18T13:43:27.343Z,11.70
2022-08-18T13:45:56.137Z,13.32
2022-08-18T13:48:26.890Z,15.15
2022-08-18T13:50:55.773Z,13.93
2022-08-18T13:53:24.541Z,10.73
2022-08-18T13:55:52.392Z,10.68
2022-08-18T13:58:21.107Z,13.68
2022-08-18T14:01:01.895Z,16.52
2022-08-18T14:03:47.388Z,18.65
2022-08-18T14:06:15.846Z,13.52
2022-08-18T14:08:49.769Z,15.80
2022-08-18T14:11:17.529Z,18.60
2022-08-18T14:13:45.121Z,13.23
2022-08-18T14:16:18.926Z,9.93
2022-08-18T14:19:09.590Z,21.77
2022-08-18T14:22:01.890Z,16.35
2022-08-18T14:24:49.427Z,15.10
2022-08-18T14:27:17.923Z,11.15
2022-08-18T14:29:48.011Z,9.85
2022-08-18T14:32:28.432Z,10.75
2022-08-18T14:35:32.880Z,14.52
2022-08-18T14:37:48.990Z,7.75
2022-08-18T14:40:17.407Z,12.27
2022-08-18T14:42:54.942Z,7.80
2022-08-18T14:45:31.229Z,9.73
2022-08-18T14:48:06.765Z,10.35
2022-08-18T14:50:35.937Z,8.73
2022-08-18T14:53:04.529Z,11.90
2022-08-18T14:55:32.030Z,8.05
2022-08-18T14:57:59.446Z,10.13
2022-08-18T15:00:27.927Z,8.13
2022-08-18T15:02:55.462Z,11.13
2022-08-18T15:05:24.427Z,12.70
2022-08-18T15:07:52.787Z,6.68
2022-08-18T15:10:23.306Z,5.95
2022-08-18T15:12:54.396Z,9.52
2022-08-18T15:15:22.356Z,7.65
2022-08-18T15:17:52.938Z,7.57
2022-08-18T15:20:28.758Z,6.18
2022-08-18T15:23:22.830Z,7.00
2022-08-18T15:25:55.173Z,7.28
2022-08-18T15:28:26.417Z,8.27
2022-08-18T15:33:40.357Z,8.10
2022-08-18T15:36:10.325Z,6.35
2022-08-18T15:38:43.177Z,5.32
2022-08-18T15:41:10.241Z,5.32
2022-08-18T15:43:45.918Z,6.70
2022-08-18T15:46:16.891Z,3.55
2022-08-18T15:48:44.217Z,5.88
2022-08-18T15:51:12.075Z,11.57
2022-08-18T15:53:45.001Z,6.47
2022-08-18T15:56:14.992Z,10.30
2022-08-18T15:58:41.975Z,6.65
2022-08-18T16:01:29.908Z,8.35
2022-08-18T16:03:58.023Z,9.05
2022-08-18T16:06:27.532Z,12.65
2022-08-18T16:08:55.762Z,11.88
2022-08-18T16:11:29.133Z,9.50
2022-08-18T16:13:59.072Z,12.98
2022-08-18T16:16:28.986Z,8.73
2022-08-18T16:19:06.609Z,8.90
2022-08-18T16:21:33.850Z,11.48
2022-08-18T16:24:00.799Z,8.95
2022-08-18T16:26:27.706Z,11.63
2022-08-18T16:28:54.677Z,7.78
2022-08-18T16:31:26.734Z,8.60
2022-08-18T16:33:54.980Z,8.82
2022-08-18T16:36:25.462Z,7.40
2022-08-18T16:38:56.048Z,16.10
2022-08-18T16:41:26.813Z,5.40
2022-08-18T16:43:53.969Z,8.65
2022-08-18T16:46:24.611Z,6.30
2022-08-18T16:48:51.840Z,11.80
2022-08-18T16:51:22.320Z,6.47
2022-08-18T16:53:52.298Z,8.52
2022-08-18T16:56:25.012Z,9.45
2022-08-18T16:59:10.504Z,4.32
2022-08-18T17:01:57.070Z,11.30
2022-08-18T17:04:29.882Z,8.35
2022-08-18T17:06:57.268Z,8.02
2022-08-18T17:09:24.856Z,6.43
2022-08-18T17:11:52.515Z,8.30
2022-08-18T17:14:25.049Z,5.03
2022-08-18T17:16:56.213Z,7.88
2022-08-18T17:19:25.497Z,4.32
2022-08-18T17:21:53.233Z,3.53
2022-08-18T17:24:31.931Z,5.22
2022-08-18T17:27:26.575Z,7.13
2022-08-18T17:30:16.426Z,7.22
2022-08-18T17:32:52.058Z,11.57
2022-08-18T17:35:26.323Z,4.07
2022-08-18T17:38:21.304Z,4.68
2022-08-18T17:40:54.453Z,8.20
2022-08-18T17:43:29.618Z,9.18
2022-08-18T17:46:01.704Z,5.17
2022-08-18T17:48:52.646Z,8.02
2022-08-18T17:51:37.509Z,4.90
2022-08-18T17:54:38.318Z,7.25
2022-08-18T17:57:12.881Z,7.97
2022-08-18T18:00:02.214Z,7.05
2022-08-18T18:02:31.465Z,5.32
2022-08-18T18:05:05.639Z,10.30
2022-08-18T18:07:43.312Z,5.65
2022-08-18T18:10:14.379Z,7.35
2022-08-18T18:12:41.833Z,5.47
2022-08-18T18:15:12.292Z,5.18
2022-08-18T18:17:42.502Z,4.25
2022-08-18T18:20:41.889Z,3.92
2022-08-18T18:23:21.116Z,6.38
2022-08-18T18:25:50.297Z,3.88
2022-08-18T18:28:33.389Z,4.18
2022-08-18T18:31:21.442Z,7.40
2022-08-18T18:33:56.981Z,5.15
2022-08-18T18:36:45.978Z,5.30
2022-08-18T18:39:35.835Z,4.43
2022-08-18T18:42:17.621Z,2.47
2022-08-18T18:44:53.545Z,3.63
2022-08-18T18:47:32.836Z,2.58
2022-08-18T18:50:24.669Z,5.25
2022-08-18T18:53:14.328Z,7.82
2022-08-18T18:56:14.810Z,3.08
2022-08-18T18:58:48.326Z,4.53
2022-08-18T19:01:49.452Z,6.13
2022-08-18T19:04:24.291Z,4.70
2022-08-18T19:06:54.275Z,3.22
2022-08-18T19:09:57.122Z,4.38
2022-08-18T19:12:29.788Z,3.35
2022-08-18T19:15:08.416Z,3.90
2022-08-18T19:17:40.386Z,4.20
2022-08-18T19:20:15.118Z,4.25
2022-08-18T19:22:46.658Z,8.57
2022-08-18T19:25:19.724Z,4.88
2022-08-18T19:27:49.822Z,3.70
2022-08-18T19:30:20.343Z,2.95
2022-08-18T19:32:55.072Z,5.05
2022-08-18T19:35:58.913Z,7.40
2022-08-18T19:38:33.849Z,4.65
2022-08-18T19:41:31.022Z,3.22
2022-08-18T19:44:04.755Z,3.92
2022-08-18T19:46:37.027Z,6.68
2022-08-18T19:49:24.041Z,3.63
2022-08-18T19:51:58.155Z,6.03
2022-08-18T19:54:46.132Z,3.85
2022-08-18T19:57:45.329Z,4.88
2022-08-18T20:00:34.126Z,2.90
2022-08-18T20:03:31.844Z,3.70
2022-08-18T20:06:36.094Z,3.00
2022-08-18T20:09:23.564Z,2.75
2022-08-18T20:12:13.718Z,2.47
2022-08-18T20:14:45.157Z,1.83
2022-08-18T20:17:16.932Z,4.30
2022-08-18T20:19:57.662Z,4.43
2022-08-18T20:22:25.056Z,4.47
2022-08-18T20:25:05.787Z,6.05
2022-08-18T20:27:42.517Z,5.75
2022-08-18T20:30:30.320Z,4.43
2022-08-18T20:33:08.965Z,8.15
2022-08-18T20:35:53.679Z,3.40
2022-08-18T20:38:39.050Z,9.23
2022-08-18T20:41:27.715Z,6.88
2022-08-18T20:44:28.640Z,9.02
2022-08-18T20:47:47.302Z,5.95
2022-08-18T20:50:33.995Z,5.55
2022-08-18T20:53:50.938Z,5.93
2022-08-18T20:56:43.982Z,6.97
2022-08-18T20:59:17.910Z,8.13
2022-08-18T21:01:57.281Z,4.78
2022-08-18T21:04:34.754Z,5.82
2022-08-18T21:07:13.039Z,5.72
2022-08-18T21:09:50.708Z,5.35
2022-08-18T21:12:23.776Z,4.75
2022-08-18T21:14:56.865Z,4.63
2022-08-18T21:17:26.385Z,6.03
2022-08-18T21:19:59.606Z,5.43
2022-08-18T21:22:28.773Z,6.30
2022-08-18T21:24:55.924Z,9.05
2022-08-18T21:27:38.130Z,8.50
2022-08-18T21:30:14.590Z,7.28
2022-08-18T21:32:44.662Z,5.47
2022-08-18T21:35:27.957Z,5.03
2022-08-18T21:38:06.494Z,8.35
2022-08-18T21:40:44.573Z,7.47
2022-08-18T21:43:14.743Z,3.90
2022-08-18T21:45:50.080Z,2.90
2022-08-18T21:48:20.321Z,4.28
2022-08-18T21:50:51.334Z,5.63
2022-08-18T21:53:21.319Z,7.47
2022-08-18T21:55:55.133Z,6.35
2022-08-18T21:58:34.553Z,8.68
2022-08-18T22:01:10.707Z,7.18
2022-08-18T22:03:52.449Z,4.00
2022-08-18T22:06:27.073Z,8.48
2022-08-18T22:09:23.705Z,9.10
2022-08-18T22:12:44.170Z,6.32
2022-08-18T22:15:16.154Z,8.07
2022-08-18T22:17:52.159Z,6.75
2022-08-18T22:23:32.608Z,7.05
2022-08-18T22:26:17.448Z,11.27
2022-08-18T22:29:13.218Z,7.95
2022-08-18T22:31:44.634Z,5.13
2022-08-18T22:34:13.523Z,2.33
2022-08-18T22:36:59.862Z,7.63
2022-08-18T22:39:30.126Z,1.65
2022-08-18T22:41:57.992Z,2.20
2022-08-18T22:44:25.666Z,1.33
2022-08-18T22:46:52.955Z,1.40
2022-08-18T22:49:21.180Z,1.27
2022-08-18T22:51:50.679Z,0.85
2022-08-18T22:54:19.223Z,1.67
2022-08-18T22:56:54.121Z,0.95
2022-08-18T22:59:25.617Z,2.20
2022-08-18T23:01:55.094Z,1.15
2022-08-18T23:04:24.681Z,1.02
2022-08-18T23:06:53.706Z,2.78
2022-08-18T23:09:26.828Z,1.90
2022-08-18T23:11:56.825Z,0.88
2022-08-18T23:14:24.513Z,1.42
2022-08-18T23:16:51.806Z,1.48
2022-08-18T23:19:20.485Z,2.38
2022-08-18T23:21:49.402Z,0.50
2022-08-18T23:24:17.816Z,1.50
2022-08-18T23:26:45.230Z,2.42
2022-08-18T23:29:14.480Z,1.08
2022-08-18T23:31:43.661Z,1.77
2022-08-18T23:34:13.205Z,1.08
2022-08-18T23:36:45.095Z,1.67
2022-08-18T23:39:13.545Z,0.70
2022-08-18T23:41:40.600Z,1.95
2022-08-18T23:44:07.708Z,1.50
2022-08-18T23:46:35.612Z,2.03
2022-08-18T23:49:04.748Z,2.03
2022-08-18T23:51:41.524Z,3.73
2022-08-18T23:54:20.476Z,1.95
2022-08-18T23:56:48.770Z,2.65
2022-08-18T23:59:20.854Z,2.15
